createdAt,value
2023-07-24T00:02:15.147Z,100177.13
2023-07-24T00:04:43.042Z,100177.56
2023-07-24T00:07:12.300Z,100175.41
2023-07-24T00:09:40.367Z,100169.63
2023-07-24T00:12:09.285Z,100160.22
2023-07-24T00:14:37.205Z,100162.38
2023-07-24T00:17:05.273Z,100160.69
2023-07-24T00:19:33.309Z,100152.34
2023-07-24T00:22:01.210Z,100160.88
2023-07-24T00:24:32.174Z,100160.69
2023-07-24T00:27:00.303Z,100152.97
2023-07-24T00:29:28.190Z,100157.66
2023-07-24T00:31:56.295Z,100158.75
2023-07-24T00:34:24.170Z,100157.88
2023-07-24T00:36:52.421Z,100162.81
2023-07-24T00:39:20.275Z,100153.84
2023-07-24T00:41:49.509Z,100153.63
2023-07-24T00:44:17.390Z,100166.22
2023-07-24T00:46:45.375Z,100165.56
2023-07-24T00:49:15.209Z,100152.78
2023-07-24T00:51:43.365Z,100147.44
2023-07-24T00:54:11.266Z,100143.16
2023-07-24T00:56:39.521Z,100137.81
2023-07-24T00:59:08.751Z,100138.88
2023-07-24T01:01:38.764Z,100135.47
2023-07-24T01:04:08.130Z,100129.28
2023-07-24T01:06:36.162Z,100120.50
2023-07-24T01:09:05.052Z,100118.78
2023-07-24T01:11:39.310Z,100114.94
2023-07-24T01:14:15.797Z,100111.53
2023-07-24T01:16:44.771Z,100102.94
2023-07-24T01:19:18.196Z,100107.47
2023-07-24T01:22:03.439Z,100101.22
2023-07-24T01:24:36.135Z,100092.50
2023-07-24T01:27:06.200Z,100092.69
2023-07-24T01:29:34.042Z,100081.41
2023-07-24T01:32:02.085Z,100087.16
2023-07-24T01:34:30.048Z,100067.94
2023-07-24T01:36:58.171Z,100069.19
2023-07-24T01:39:26.399Z,100065.78
2023-07-24T01:41:54.266Z,100064.09
2023-07-24T01:44:23.562Z,100066.00
2023-07-24T01:46:51.502Z,100056.19
2023-07-24T01:49:19.507Z,100056.38
2023-07-24T01:51:47.342Z,100063.00
2023-07-24T01:54:15.172Z,100058.50
2023-07-24T01:56:42.990Z,100051.03
2023-07-24T01:59:10.859Z,100045.50
2023-07-24T02:01:40.169Z,100050.84
2023-07-24T02:04:08.040Z,100038.47
2023-07-24T02:06:35.999Z,100045.94
2023-07-24T02:09:03.930Z,100031.19
2023-07-24T02:11:31.721Z,100022.03
2023-07-24T02:14:00.401Z,100022.88
2023-07-24T02:16:28.794Z,100018.38
2023-07-24T02:18:58.294Z,100020.97
2023-07-24T02:21:26.132Z,100013.69
2023-07-24T02:23:56.448Z,100011.78
2023-07-24T02:26:24.316Z,100006.22
2023-07-24T02:28:52.204Z,100012.63
2023-07-24T02:31:20.188Z,100023.72
2023-07-24T02:33:48.074Z,100020.97
2023-07-24T02:36:17.509Z,100024.13
2023-07-24T02:38:45.752Z,99997.69
2023-07-24T02:41:13.819Z,99989.78
2023-07-24T02:43:41.944Z,100005.56
2023-07-24T02:46:10.145Z,100008.34
2023-07-24T02:48:38.231Z,100014.09
2023-07-24T02:51:06.249Z,100036.53
2023-07-24T02:53:35.610Z,100022.66
2023-07-24T02:56:04.426Z,100014.75
2023-07-24T02:58:32.554Z,100013.25
2023-07-24T03:01:05.410Z,100008.34
2023-07-24T03:03:33.602Z,100007.91
2023-07-24T03:06:01.625Z,100007.06
2023-07-24T03:08:29.796Z,100008.97
2023-07-24T03:10:59.389Z,99997.88
2023-07-24T03:13:28.540Z,100006.44
2023-07-24T03:15:58.406Z,100007.28
2023-07-24T03:18:27.434Z,100002.16
2023-07-24T03:20:55.672Z,99992.97
2023-07-24T03:23:23.837Z,99987.22
2023-07-24T03:25:51.859Z,99980.81
2023-07-24T03:28:21.381Z,99986.16
2023-07-24T03:30:49.558Z,99989.16
2023-07-24T03:33:18.596Z,99982.75
2023-07-24T03:35:46.584Z,99979.97
2023-07-24T03:38:14.709Z,99990.00
2023-07-24T03:40:42.690Z,99979.97
2023-07-24T03:43:11.325Z,99971.63
2023-07-24T03:45:40.971Z,99970.38
2023-07-24T03:48:09.261Z,99965.22
2023-07-24T03:50:39.155Z,99970.78
2023-07-24T03:53:07.457Z,99968.00
2023-07-24T03:55:35.597Z,99968.00
2023-07-24T03:58:03.674Z,99969.72
2023-07-24T04:00:31.809Z,99969.94
2023-07-24T04:03:01.430Z,99963.31
2023-07-24T04:05:29.522Z,99965.44
2023-07-24T04:07:57.804Z,99957.31
2023-07-24T04:10:25.994Z,99953.69
2023-07-24T04:12:54.176Z,99956.47
2023-07-24T04:15:22.708Z,99959.50
2023-07-24T04:17:50.909Z,99965.84
2023-07-24T04:20:20.560Z,99961.16
2023-07-24T04:22:48.943Z,99956.91
2023-07-24T04:25:17.202Z,99961.41
2023-07-24T04:27:45.414Z,99953.09
2023-07-24T04:30:14.178Z,99953.09
2023-07-24T04:32:42.440Z,99958.63
2023-07-24T04:35:10.879Z,99960.56
2023-07-24T04:37:43.367Z,99965.03
2023-07-24T04:40:11.820Z,99967.97
2023-07-24T04:42:40.032Z,99971.41
2023-07-24T04:45:09.419Z,99964.38
2023-07-24T04:47:38.105Z,99962.47
2023-07-24T04:50:07.134Z,99965.25
2023-07-24T04:52:35.002Z,99965.25
2023-07-24T04:55:04.425Z,99961.16
2023-07-24T04:57:32.316Z,99968.63
2023-07-24T05:00:00.201Z,99975.91
2023-07-24T05:02:28.149Z,99973.13
2023-07-24T05:04:56.035Z,99983.16
2023-07-24T05:07:23.910Z,99989.56
2023-07-24T05:09:51.866Z,99986.78
2023-07-24T05:12:21.243Z,99990.22
2023-07-24T05:14:49.247Z,99983.16
2023-07-24T05:17:17.062Z,99984.22
2023-07-24T05:19:45.018Z,99987.00
2023-07-24T05:22:12.852Z,99990.84
2023-07-24T05:24:40.862Z,99992.78
2023-07-24T05:27:08.794Z,100002.16
2023-07-24T05:29:38.119Z,100002.78
2023-07-24T05:32:07.017Z,99998.53
2023-07-24T05:34:34.826Z,99994.91
2023-07-24T05:37:02.751Z,99987.22
2023-07-24T05:39:31.873Z,99992.53
2023-07-24T05:41:59.877Z,100004.69
2023-07-24T05:44:27.732Z,100003.88
2023-07-24T05:46:56.999Z,99997.88
2023-07-24T05:49:24.921Z,100003.63
2023-07-24T05:51:53.848Z,99995.31
2023-07-24T05:54:21.919Z,99990.63
2023-07-24T05:56:49.752Z,99995.09
2023-07-24T05:59:17.644Z,100007.06
2023-07-24T06:01:45.841Z,100000.44
2023-07-24T06:04:15.193Z,100011.13
2023-07-24T06:06:43.231Z,100003.88
2023-07-24T06:09:11.081Z,100000.91
2023-07-24T06:11:38.893Z,100006.00
2023-07-24T06:14:06.768Z,100001.31
2023-07-24T06:16:34.804Z,99989.78
2023-07-24T06:19:02.792Z,100000.44
2023-07-24T06:21:31.988Z,100004.31
2023-07-24T06:23:59.933Z,99994.91
2023-07-24T06:26:28.181Z,99987.63
2023-07-24T06:28:56.265Z,99992.53
2023-07-24T06:31:24.206Z,100002.38
2023-07-24T06:33:52.174Z,99998.09
2023-07-24T06:36:20.020Z,100005.97
2023-07-24T06:38:49.765Z,100010.66
2023-07-24T06:41:17.640Z,100011.53
2023-07-24T06:43:45.559Z,100014.56
2023-07-24T06:46:13.408Z,100007.28
2023-07-24T06:48:41.259Z,100011.34
2023-07-24T06:51:09.104Z,100012.59
2023-07-24T06:53:37.006Z,100020.28
2023-07-24T06:56:06.336Z,100014.94
2023-07-24T06:58:34.287Z,100013.84
2023-07-24T07:01:02.244Z,100021.75
2023-07-24T07:03:30.265Z,100016.63
2023-07-24T07:06:01.195Z,100017.03
2023-07-24T07:08:29.315Z,100003.38
2023-07-24T07:10:58.238Z,100002.91
2023-07-24T07:13:28.245Z,99992.44
2023-07-24T07:15:56.220Z,99989.88
2023-07-24T07:18:24.176Z,99990.72
2023-07-24T07:20:53.233Z,99996.72
2023-07-24T07:23:21.459Z,100003.34
2023-07-24T07:25:50.380Z,99998.63
2023-07-24T07:28:18.966Z,100001.63
2023-07-24T07:30:48.212Z,100009.75
2023-07-24T07:33:16.642Z,100007.41
2023-07-24T07:35:45.083Z,100005.47
2023-07-24T07:38:12.883Z,100002.91
2023-07-24T07:40:41.067Z,99999.28
2023-07-24T07:43:08.942Z,100000.38
2023-07-24T07:45:36.779Z,100002.28
2023-07-24T07:48:06.817Z,99995.44
2023-07-24T07:50:34.755Z,99996.50
2023-07-24T07:53:02.573Z,99991.78
2023-07-24T07:55:30.442Z,99983.25
2023-07-24T07:58:00.447Z,99983.03
2023-07-24T08:00:28.289Z,99983.66
2023-07-24T08:02:56.219Z,99987.09
2023-07-24T08:05:25.596Z,99981.06
2023-07-24T08:07:53.512Z,99975.50
2023-07-24T08:10:21.589Z,99975.31
2023-07-24T08:12:49.523Z,99963.13
2023-07-24T08:15:17.676Z,99962.03
2023-07-24T08:17:45.680Z,99974.88
2023-07-24T08:20:13.755Z,99977.41
2023-07-24T08:22:43.020Z,99974.19
2023-07-24T08:25:11.026Z,99976.97
2023-07-24T08:27:54.462Z,99965.66
2023-07-24T08:30:22.927Z,99964.34
2023-07-24T08:32:52.110Z,99969.47
2023-07-24T08:35:20.112Z,99967.13
2023-07-24T08:37:49.337Z,99972.88
2023-07-24T08:40:18.207Z,99960.25
2023-07-24T08:42:46.227Z,99958.94
2023-07-24T08:45:15.438Z,99966.41
2023-07-24T08:47:45.091Z,99957.38
2023-07-24T08:50:13.551Z,99960.56
2023-07-24T08:52:43.248Z,99957.53
2023-07-24T08:55:12.769Z,99959.66
2023-07-24T08:57:40.599Z,99954.09
2023-07-24T09:00:09.451Z,99956.66
2023-07-24T09:02:38.005Z,99968.66
2023-07-24T09:05:07.181Z,99972.03
2023-07-24T09:07:35.097Z,99967.81
2023-07-24T09:10:03.013Z,99954.97
2023-07-24T09:12:32.361Z,99968.41
2023-07-24T09:15:06.621Z,99954.75
2023-07-24T09:17:35.260Z,99957.97
2023-07-24T09:20:05.002Z,99957.09
2023-07-24T09:22:34.761Z,99965.66
2023-07-24T09:25:04.705Z,99972.09
2023-07-24T09:27:34.498Z,99962.66
2023-07-24T09:30:03.920Z,99964.81
2023-07-24T09:32:32.869Z,99958.41
2023-07-24T09:35:01.092Z,99961.19
2023-07-24T09:37:30.234Z,99950.91
2023-07-24T09:40:00.137Z,99952.22
2023-07-24T09:42:32.409Z,99946.41
2023-07-24T09:45:01.961Z,99943.25
2023-07-24T09:47:52.749Z,99932.13
2023-07-24T09:50:18.306Z,99921.84
2023-07-24T09:52:48.562Z,99916.06
2023-07-24T09:55:23.967Z,99911.75
2023-07-24T09:57:55.758Z,99905.13
2023-07-24T10:00:25.595Z,99891.22
2023-07-24T10:02:53.725Z,99904.69
2023-07-24T10:05:21.987Z,99897.56
2023-07-24T10:07:50.360Z,99896.28
2023-07-24T10:10:18.393Z,99897.75
2023-07-24T10:12:46.799Z,99892.81
2023-07-24T10:15:15.711Z,99885.09
2023-07-24T10:17:45.234Z,99894.69
2023-07-24T10:20:14.352Z,99891.66
2023-07-24T10:22:44.393Z,99887.59
2023-07-24T10:25:12.979Z,99883.09
2023-07-24T10:27:44.052Z,99884.38
2023-07-24T10:30:27.319Z,99887.16
2023-07-24T10:33:06.150Z,99886.66
2023-07-24T10:35:39.900Z,99880.03
2023-07-24T10:38:07.899Z,99884.97
2023-07-24T10:40:36.304Z,99885.59
2023-07-24T10:43:07.745Z,99879.81
2023-07-24T10:45:49.319Z,99885.38
2023-07-24T10:48:19.089Z,99888.38
2023-07-24T10:50:51.547Z,99867.81
2023-07-24T10:53:23.240Z,99860.56
2023-07-24T10:55:53.756Z,99858.19
2023-07-24T10:58:21.635Z,99850.91
2023-07-24T11:00:49.612Z,99836.81
2023-07-24T11:03:19.462Z,99828.59
2023-07-24T11:05:49.085Z,99832.88
2023-07-24T11:08:18.517Z,99839.06
2023-07-24T11:10:48.412Z,99825.53
2023-07-24T11:13:16.583Z,99822.50
2023-07-24T11:15:45.867Z,99834.03
2023-07-24T11:18:14.237Z,99833.56
2023-07-24T11:20:47.945Z,99799.50
2023-07-24T11:23:16.916Z,99795.00
2023-07-24T11:25:45.452Z,99790.88
2023-07-24T11:28:15.511Z,99789.81
2023-07-24T11:30:44.342Z,99821.50
2023-07-24T11:33:16.119Z,99862.19
2023-07-24T11:35:47.252Z,99929.84
2023-07-24T11:38:16.153Z,99960.97
2023-07-24T11:40:46.406Z,99968.91
2023-07-24T11:43:19.386Z,99931.44
2023-07-24T11:45:49.780Z,99957.91
2023-07-24T11:48:17.815Z,99984.28
2023-07-24T11:50:48.752Z,99979.81
2023-07-24T11:53:24.841Z,99962.13
2023-07-24T11:55:53.732Z,99943.19
2023-07-24T11:58:22.491Z,99959.13
2023-07-24T12:00:52.846Z,99973.28
2023-07-24T12:03:22.808Z,99955.16
2023-07-24T12:05:52.423Z,99912.91
2023-07-24T12:08:24.608Z,99908.72
2023-07-24T12:10:52.643Z,99927.63
2023-07-24T12:13:22.031Z,99917.13
2023-07-24T12:15:50.369Z,99910.94
2023-07-24T12:18:18.526Z,99911.63
2023-07-24T12:20:46.462Z,99916.56
2023-07-24T12:23:15.753Z,99918.25
2023-07-24T12:25:43.597Z,99920.19
2023-07-24T12:28:11.532Z,99908.91
2023-07-24T12:30:39.721Z,99899.28
2023-07-24T12:33:07.578Z,99902.50
2023-07-24T12:35:35.459Z,99890.75
2023-07-24T12:38:03.379Z,99888.00
2023-07-24T12:40:32.655Z,99880.31
2023-07-24T12:43:00.484Z,99863.22
2023-07-24T12:45:28.506Z,99856.38
2023-07-24T12:47:57.157Z,99845.69
2023-07-24T12:50:25.659Z,99851.63
2023-07-24T12:52:53.483Z,99852.88
2023-07-24T12:55:21.887Z,99836.59
2023-07-24T12:57:51.054Z,99832.34
2023-07-24T13:00:19.165Z,99830.38
2023-07-24T13:02:47.104Z,99835.69
2023-07-24T13:05:15.097Z,99831.78
2023-07-24T13:07:43.008Z,99825.13
2023-07-24T13:10:11.601Z,99840.47
2023-07-24T13:12:39.482Z,99844.25
2023-07-24T13:15:09.555Z,99857.91
2023-07-24T13:17:38.193Z,99858.09
2023-07-24T13:20:07.608Z,99853.34
2023-07-24T13:22:35.496Z,99859.94
2023-07-24T13:25:03.856Z,99873.81
2023-07-24T13:27:31.686Z,99868.44
2023-07-24T13:29:59.563Z,99866.03
2023-07-24T13:32:30.906Z,99862.38
2023-07-24T13:34:59.996Z,99860.69
2023-07-24T13:37:27.869Z,99850.78
2023-07-24T13:39:55.793Z,99841.16
2023-07-24T13:42:23.646Z,99846.28
2023-07-24T13:44:51.862Z,99836.59
2023-07-24T13:47:19.736Z,99835.31
2023-07-24T13:49:49.025Z,99834.59
2023-07-24T13:52:17.051Z,99822.41
2023-07-24T13:54:45.015Z,99823.88
2023-07-24T13:57:12.884Z,99815.09
2023-07-24T13:59:41.495Z,99807.97
2023-07-24T14:02:09.501Z,99804.75
2023-07-24T14:04:37.585Z,99808.97
2023-07-24T14:07:07.169Z,99800.81
2023-07-24T14:09:36.006Z,99800.81
2023-07-24T14:12:03.953Z,99794.19
2023-07-24T14:14:32.597Z,99793.50
2023-07-24T14:17:00.440Z,99796.28
2023-07-24T14:19:28.340Z,99806.34
2023-07-24T14:21:56.138Z,99801.41
2023-07-24T14:24:25.518Z,99803.69
2023-07-24T14:26:53.425Z,99813.75
2023-07-24T14:29:21.331Z,99811.84
2023-07-24T14:31:49.231Z,99808.81
2023-07-24T14:34:17.391Z,99797.47
2023-07-24T14:36:45.197Z,99797.00
2023-07-24T14:39:13.174Z,99800.63
2023-07-24T14:41:42.569Z,99804.03
2023-07-24T14:44:10.468Z,99815.66
2023-07-24T14:46:38.440Z,99815.66
2023-07-24T14:49:06.409Z,99815.00
2023-07-24T14:51:34.847Z,99812.69
2023-07-24T14:54:02.846Z,99811.47
2023-07-24T14:56:43.941Z,99822.19
2023-07-24T14:59:19.977Z,99836.59
2023-07-24T15:01:47.879Z,99835.28
2023-07-24T15:04:15.723Z,99832.94
2023-07-24T15:06:43.620Z,99826.38
2023-07-24T15:09:12.552Z,99822.75
2023-07-24T15:11:40.822Z,99821.50
2023-07-24T15:14:08.763Z,99821.72
2023-07-24T15:16:38.062Z,99814.25
2023-07-24T15:19:06.038Z,99827.53
2023-07-24T15:21:35.410Z,99817.69
2023-07-24T15:24:03.273Z,99825.81
2023-07-24T15:26:31.234Z,99826.66
2023-07-24T15:28:59.140Z,99819.41
2023-07-24T15:31:27.313Z,99825.81
2023-07-24T15:33:56.534Z,99821.97
2023-07-24T15:36:24.351Z,99835.25
2023-07-24T15:38:52.216Z,99833.31
2023-07-24T15:41:20.136Z,99839.72
2023-07-24T15:43:47.968Z,99840.56
2023-07-24T15:46:18.174Z,99836.94
2023-07-24T15:48:46.359Z,99835.66
2023-07-24T15:51:15.656Z,99840.50
2023-07-24T15:53:43.511Z,99849.94
2023-07-24T15:56:12.950Z,99848.84
2023-07-24T15:58:46.925Z,99851.63
2023-07-24T16:01:17.885Z,99856.13
2023-07-24T16:03:46.729Z,99855.06
2023-07-24T16:06:16.807Z,99865.97
2023-07-24T16:08:45.354Z,99864.03
2023-07-24T16:11:15.853Z,99875.38
2023-07-24T16:13:45.318Z,99867.66
2023-07-24T16:16:16.898Z,99871.75
2023-07-24T16:18:46.340Z,99880.78
2023-07-24T16:21:14.337Z,99880.31
2023-07-24T16:23:43.803Z,99880.31
2023-07-24T16:26:11.644Z,99881.00
2023-07-24T16:28:40.270Z,99887.66
2023-07-24T16:31:49.208Z,99885.72
2023-07-24T16:34:38.121Z,99886.22
2023-07-24T16:37:12.595Z,99914.03
2023-07-24T16:39:50.783Z,99939.28
2023-07-24T16:47:15.495Z,99965.97
2023-07-24T16:49:43.501Z,99972.88
2023-07-24T16:52:11.367Z,99980.56
2023-07-24T16:54:39.198Z,99980.19
2023-07-24T16:57:09.072Z,99975.97
2023-07-24T16:59:36.947Z,99971.31
2023-07-24T17:02:04.943Z,99968.97
2023-07-24T17:04:32.797Z,99972.84
2023-07-24T17:07:01.998Z,99986.75
2023-07-24T17:09:29.888Z,99983.16
2023-07-24T17:11:57.724Z,99984.59
2023-07-24T17:14:26.990Z,99997.88
2023-07-24T17:16:54.927Z,100002.56
2023-07-24T17:19:23.535Z,100000.44
2023-07-24T17:21:51.431Z,100007.47
2023-07-24T17:24:19.492Z,100008.34
2023-07-24T17:26:47.441Z,100006.22
2023-07-24T17:29:15.384Z,100000.22
2023-07-24T17:31:45.092Z,100004.28
2023-07-24T17:34:12.926Z,100004.94
2023-07-24T17:36:40.797Z,100001.72
2023-07-24T17:39:08.700Z,100008.78
2023-07-24T17:41:36.530Z,100006.66
2023-07-24T17:44:04.433Z,100018.16
2023-07-24T17:46:32.446Z,100013.22
2023-07-24T17:49:01.782Z,100016.25
2023-07-24T17:51:29.997Z,100022.41
2023-07-24T17:53:59.750Z,100027.53
2023-07-24T17:56:27.666Z,100019.59
2023-07-24T17:58:55.616Z,100021.72
2023-07-24T18:01:23.551Z,100020.25
2023-07-24T18:03:51.501Z,100029.84
2023-07-24T18:06:20.730Z,100023.44
2023-07-24T18:08:48.747Z,100030.25
2023-07-24T18:11:16.589Z,100031.31
2023-07-24T18:13:44.671Z,100032.38
2023-07-24T18:16:12.599Z,100019.59
2023-07-24T18:18:40.491Z,100016.16
2023-07-24T18:21:09.164Z,100021.91
2023-07-24T18:23:38.822Z,100013.59
2023-07-24T18:26:06.705Z,100015.06
2023-07-24T18:28:34.753Z,100010.59
2023-07-24T18:31:02.723Z,100003.56
2023-07-24T18:33:31.322Z,100000.78
2023-07-24T18:35:59.199Z,100004.81
2023-07-24T18:38:27.221Z,100016.13
2023-07-24T18:40:56.433Z,100020.59
2023-07-24T18:43:24.526Z,100019.13
2023-07-24T18:45:52.516Z,100031.47
2023-07-24T18:48:20.648Z,100037.00
2023-07-24T18:50:48.456Z,100028.03
2023-07-24T18:53:17.949Z,100035.50
2023-07-24T18:55:45.979Z,100035.72
2023-07-24T18:58:15.257Z,100031.88
2023-07-24T19:00:43.087Z,100038.72
2023-07-24T19:03:12.139Z,100048.09
2023-07-24T19:05:40.048Z,100051.91
2023-07-24T19:08:08.031Z,100050.19
2023-07-24T19:10:36.315Z,100051.25
2023-07-24T19:13:04.236Z,100062.56
2023-07-24T19:15:33.531Z,100068.97
2023-07-24T19:18:01.409Z,100069.38
2023-07-24T19:20:31.508Z,100074.28
2023-07-24T19:22:59.436Z,100067.22
2023-07-24T19:25:27.291Z,100083.84
2023-07-24T19:27:55.207Z,100084.03
2023-07-24T19:30:23.139Z,100088.09
2023-07-24T19:32:52.451Z,100096.19
2023-07-24T19:35:21.049Z,100093.00
2023-07-24T19:37:48.954Z,100111.72
2023-07-24T19:40:16.883Z,100099.78
2023-07-24T19:42:44.804Z,100107.44
2023-07-24T19:45:12.888Z,100118.53
2023-07-24T19:47:40.958Z,100117.91
2023-07-24T19:50:10.864Z,100125.16
2023-07-24T19:52:38.846Z,100119.16
2023-07-24T19:55:09.725Z,100122.13
2023-07-24T19:57:39.109Z,100122.53
2023-07-24T20:00:08.563Z,100126.81
2023-07-24T20:02:36.522Z,100132.50
2023-07-24T20:05:04.533Z,100141.06
2023-07-24T20:07:33.852Z,100152.81
2023-07-24T20:10:01.913Z,100147.66
2023-07-24T20:12:29.822Z,100147.66
2023-07-24T20:14:57.767Z,100152.34
2023-07-24T20:17:25.733Z,100154.44
2023-07-24T20:19:53.608Z,100148.91
2023-07-24T20:22:21.482Z,100151.88
2023-07-24T20:24:50.784Z,100157.22
2023-07-24T20:27:18.800Z,100154.84
2023-07-24T20:29:46.644Z,100158.69
2023-07-24T20:32:15.094Z,100160.38
2023-07-24T20:34:43.137Z,100168.94
2023-07-24T20:37:11.002Z,100165.28
2023-07-24T20:39:38.867Z,100168.94
2023-07-24T20:42:08.410Z,100166.78
2023-07-24T20:44:36.224Z,100162.53
2023-07-24T20:47:04.292Z,100158.91
2023-07-24T20:49:35.157Z,100164.25
2023-07-24T20:52:03.156Z,100164.44
2023-07-24T20:54:30.987Z,100167.41
2023-07-24T20:56:59.341Z,100173.59
2023-07-24T20:59:28.786Z,100178.28
2023-07-24T21:01:56.794Z,100170.38
2023-07-24T21:04:24.769Z,100183.16
2023-07-24T21:06:52.771Z,100173.13
2023-07-24T21:09:21.354Z,100168.84
2023-07-24T21:11:49.277Z,100168.84
2023-07-24T21:14:17.317Z,100173.75
2023-07-24T21:16:46.767Z,100163.53
2023-07-24T21:19:14.677Z,100170.31
2023-07-24T21:21:42.597Z,100184.19
2023-07-24T21:24:10.550Z,100183.31
2023-07-24T21:26:38.631Z,100175.19
2023-07-24T21:29:06.537Z,100180.09
2023-07-24T21:31:34.887Z,100189.25
2023-07-24T21:34:04.350Z,100192.88
2023-07-24T21:36:32.332Z,100185.00
2023-07-24T21:39:00.210Z,100178.59
2023-07-24T21:41:30.798Z,100186.91
2023-07-24T21:43:58.941Z,100187.94
2023-07-24T21:46:26.964Z,100189.88
2023-07-24T21:48:54.926Z,100185.38
2023-07-24T21:51:24.162Z,100179.84
2023-07-24T21:53:52.019Z,100189.19
2023-07-24T21:56:19.982Z,100183.84
2023-07-24T21:58:49.099Z,100190.25
2023-07-24T22:01:21.096Z,100198.75
2023-07-24T22:03:49.317Z,100196.41
2023-07-24T22:06:17.232Z,100206.44
2023-07-24T22:08:46.623Z,100216.66
2023-07-24T22:11:15.894Z,100206.81
2023-07-24T22:13:44.866Z,100207.88
2023-07-24T22:16:12.905Z,100200.81
2023-07-24T22:18:40.936Z,100197.22
2023-07-24T22:21:08.906Z,100203.81
2023-07-24T22:23:37.160Z,100200.38
2023-07-24T22:26:06.470Z,100197.41
2023-07-24T22:28:34.486Z,100200.56
2023-07-24T22:31:08.666Z,100203.53
2023-07-24T22:33:36.762Z,100199.88
2023-07-24T22:36:05.350Z,100202.66
2023-07-24T22:38:33.395Z,100192.88
2023-07-24T22:41:08.716Z,100202.84
2023-07-24T22:43:38.154Z,100197.31
2023-07-24T22:46:06.232Z,100202.22
2023-07-24T22:48:34.238Z,100206.91
2023-07-24T22:51:02.385Z,100201.38
2023-07-24T22:53:30.371Z,100198.78
2023-07-24T22:55:58.219Z,100202.59
2023-07-24T22:58:26.633Z,100197.06
2023-07-24T23:00:55.849Z,100198.97
2023-07-24T23:03:23.869Z,100204.72
2023-07-24T23:05:51.903Z,100213.22
2023-07-24T23:08:19.829Z,100202.16
2023-07-24T23:10:51.515Z,100206.63
2023-07-24T23:13:19.888Z,100190.81
2023-07-24T23:15:47.775Z,100198.91
2023-07-24T23:18:17.222Z,100198.72
2023-07-24T23:20:45.415Z,100198.06
2023-07-24T23:23:13.320Z,100194.44
2023-07-24T23:25:41.098Z,100198.25
2023-07-24T23:28:09.024Z,100198.25
2023-07-24T23:30:41.087Z,100205.50
2023-07-24T23:33:09.107Z,100209.94
2023-07-24T23:35:38.400Z,100205.69
2023-07-24T23:38:06.286Z,100205.25
2023-07-24T23:40:34.134Z,100205.44
2023-07-24T23:43:02.120Z,100210.13
2023-07-24T23:45:33.697Z,100218.22
2023-07-24T23:48:01.693Z,100218.81
2023-07-24T23:50:29.822Z,100218.81
2023-07-24T23:52:59.986Z,100223.97
2023-07-24T23:55:31.301Z,100226.25
2023-07-24T23:57:59.221Z,100227.13
